Auburn Township, Ohio
Current Conditions -  °F | °C
As of 8:21 AM on Saturday 22 Nov 2014 (Local Time) from KPOV Reporting Station
Moderate Rain Moderate Rain  
Wind Chill: 25°   Ceiling: 2700
Heat Index: 30°   Visibility: 5mi
Dew Point: 14°   Wind: 5mph
Humidity: 53%   Direction: 190°S
Pressure: 30.23"   Gusts: NA
Location:  41.2966°N, 81.2269°W
Report Text: KPOV 221321Z AUTO 19004KT 5SM RA SCT018 OVC027 M01/M10 A3023 RMK AO2 T10121098
Loading
Personal Weather Stations






























Interactive Weather Map New forecast layout! Learn more

10-Day Weather Forecast

Advertisements
Track Severe Weather on mobile